createdAt,value
2023-09-21T00:02:24.979Z,99947.00
2023-09-21T00:07:28.247Z,99949.66
2023-09-21T00:12:32.960Z,99947.69
2023-09-21T00:17:35.976Z,99943.94
2023-09-21T00:22:38.807Z,99949.25
2023-09-21T00:27:42.981Z,99947.97
2023-09-21T00:32:45.837Z,99940.63
2023-09-21T00:37:48.739Z,99943.66
2023-09-21T00:42:53.856Z,99931.97
2023-09-21T00:47:57.321Z,99926.44
2023-09-21T00:53:00.466Z,99921.28
2023-09-21T00:58:06.471Z,99916.38
2023-09-21T01:03:13.308Z,99915.28
2023-09-21T01:08:21.277Z,99916.34
2023-09-21T01:13:27.025Z,99907.38
2023-09-21T01:18:30.026Z,99903.66
2023-09-21T01:23:37.924Z,99894.38
2023-09-21T01:28:41.710Z,99895.94
2023-09-21T01:33:44.788Z,99897.53
2023-09-21T01:38:50.127Z,99886.44
2023-09-21T01:43:52.949Z,99886.81
2023-09-21T01:48:56.077Z,99881.28
2023-09-21T01:54:00.493Z,99877.13
2023-09-21T01:59:04.881Z,99869.84
2023-09-21T02:04:09.000Z,99860.88
2023-09-21T02:09:16.151Z,99861.72
2023-09-21T02:14:19.027Z,99860.66
2023-09-21T02:19:21.827Z,99843.50
2023-09-21T02:24:26.827Z,99842.56
2023-09-21T02:29:29.623Z,99840.09
2023-09-21T02:34:33.114Z,99827.44
2023-09-21T02:39:37.293Z,99819.50
2023-09-21T02:44:40.584Z,99819.56
2023-09-21T02:49:43.632Z,99815.25
2023-09-21T02:54:48.172Z,99808.28
2023-09-21T02:59:51.931Z,99802.53
2023-09-21T03:04:56.349Z,99795.41
2023-09-21T03:10:06.082Z,99793.19
2023-09-21T03:15:14.769Z,99783.53
2023-09-21T03:20:29.596Z,99781.03
2023-09-21T03:25:34.800Z,99772.78
2023-09-21T03:30:37.645Z,99779.00
2023-09-21T03:35:41.112Z,99769.66
2023-09-21T03:40:45.787Z,99767.25
2023-09-21T03:45:49.085Z,99763.78
2023-09-21T03:50:53.576Z,99762.34
2023-09-21T03:55:58.378Z,99761.56
2023-09-21T04:01:05.441Z,99755.38
2023-09-21T04:06:08.648Z,99754.19
2023-09-21T04:11:13.180Z,99745.22
2023-09-21T04:16:16.852Z,99739.41
2023-09-21T04:21:21.163Z,99738.22
2023-09-21T04:26:26.015Z,99735.81
2023-09-21T04:31:29.059Z,99728.13
2023-09-21T04:36:32.116Z,99724.94
2023-09-21T04:41:36.635Z,99715.38
2023-09-21T04:46:39.770Z,99720.00
2023-09-21T04:51:42.712Z,99725.84
2023-09-21T04:56:47.050Z,99724.31
2023-09-21T05:01:50.075Z,99718.03
2023-09-21T05:06:52.933Z,99713.25
2023-09-21T05:11:57.763Z,99717.09
2023-09-21T05:17:01.603Z,99706.47
2023-09-21T05:22:05.628Z,99711.72
2023-09-21T05:27:10.413Z,99702.94
2023-09-21T05:32:13.232Z,99701.22
2023-09-21T05:37:16.407Z,99702.00
2023-09-21T05:42:20.599Z,99704.53
2023-09-21T05:47:28.665Z,99696.97
2023-09-21T05:52:33.316Z,99699.06
2023-09-21T05:57:37.642Z,99690.03
2023-09-21T06:02:40.517Z,99695.94
2023-09-21T06:07:43.387Z,99686.13
2023-09-21T06:12:47.511Z,99692.50
2023-09-21T06:17:50.511Z,99687.41
2023-09-21T06:22:53.739Z,99685.63
2023-09-21T06:27:57.885Z,99686.19
2023-09-21T06:33:01.693Z,99675.50
2023-09-21T06:38:05.774Z,99684.53
2023-09-21T06:43:09.926Z,99674.91
2023-09-21T06:48:13.104Z,99670.81
2023-09-21T06:53:17.822Z,99658.53
2023-09-21T06:58:21.976Z,99654.09
2023-09-21T07:03:24.952Z,99648.47
2023-09-21T07:08:27.796Z,99650.59
2023-09-21T07:13:31.929Z,99647.34
2023-09-21T07:18:34.978Z,99644.84
2023-09-21T07:23:37.977Z,99637.00
2023-09-21T07:28:42.422Z,99642.59
2023-09-21T07:33:45.641Z,99642.69
2023-09-21T07:38:48.469Z,99645.88
2023-09-21T07:43:52.618Z,99643.94
2023-09-21T07:48:55.439Z,99637.91
2023-09-21T07:53:58.588Z,99635.34
2023-09-21T07:59:02.841Z,99630.06
2023-09-21T08:04:06.270Z,99624.81
2023-09-21T08:09:15.858Z,99627.28
2023-09-21T08:14:35.827Z,99633.59
2023-09-21T08:19:39.350Z,99622.03
2023-09-21T08:24:43.264Z,99622.91
2023-09-21T08:29:48.939Z,99617.53
2023-09-21T08:34:51.892Z,99614.09
2023-09-21T08:39:54.856Z,99611.84
2023-09-21T08:44:59.500Z,99616.78
2023-09-21T08:50:04.818Z,99601.16
2023-09-21T08:55:11.947Z,99607.31
2023-09-21T09:00:18.353Z,99617.44
2023-09-21T09:05:21.584Z,99613.09
2023-09-21T09:10:24.992Z,99618.31
2023-09-21T09:15:38.553Z,99601.75
2023-09-21T09:20:43.509Z,99601.41
2023-09-21T09:25:46.724Z,99598.44
2023-09-21T09:30:53.302Z,99590.03
2023-09-21T09:35:56.200Z,99574.44
2023-09-21T09:41:04.180Z,99576.06
2023-09-21T09:46:13.275Z,99571.63
2023-09-21T09:51:22.522Z,99558.78
2023-09-21T09:56:27.740Z,99555.47
2023-09-21T10:01:34.956Z,99554.06
2023-09-21T10:06:38.718Z,99553.09
2023-09-21T10:11:43.804Z,99551.16
2023-09-21T10:16:56.353Z,99549.22
2023-09-21T10:22:01.073Z,99548.63
2023-09-21T10:27:05.351Z,99538.13
2023-09-21T10:32:09.539Z,99526.72
2023-09-21T10:37:16.596Z,99529.13
2023-09-21T10:42:35.725Z,99525.09
2023-09-21T10:47:49.090Z,99519.44
2023-09-21T10:52:56.608Z,99522.84
2023-09-21T10:58:01.807Z,99520.88
2023-09-21T11:03:06.479Z,99515.44
2023-09-21T11:08:09.442Z,99509.13
2023-09-21T11:13:12.235Z,99506.72
2023-09-21T11:18:16.632Z,99512.84
2023-09-21T11:23:20.538Z,99507.41
2023-09-21T11:28:23.894Z,99510.28
2023-09-21T11:33:31.474Z,99495.06
2023-09-21T11:38:35.422Z,99494.47
2023-09-21T11:43:38.428Z,99491.63
2023-09-21T11:48:45.005Z,99487.25
2023-09-21T11:53:50.003Z,99490.75
2023-09-21T11:58:56.619Z,99485.09
2023-09-21T12:04:00.941Z,99488.34
2023-09-21T12:09:08.889Z,99481.44
2023-09-21T12:14:13.331Z,99475.75
2023-09-21T12:19:17.534Z,99462.56
2023-09-21T12:24:22.694Z,99466.66
2023-09-21T12:29:26.169Z,99444.63
2023-09-21T12:34:32.950Z,99450.00
2023-09-21T12:39:36.278Z,99453.50
2023-09-21T12:44:39.510Z,99444.09
2023-09-21T12:49:45.760Z,99445.97
2023-09-21T12:54:48.592Z,99453.50
2023-09-21T12:59:51.427Z,99444.22
2023-09-21T13:04:56.822Z,99456.53
2023-09-21T13:10:01.394Z,99461.72
2023-09-21T13:15:05.105Z,99460.72
2023-09-21T13:20:17.961Z,99466.06
2023-09-21T13:25:21.799Z,99466.34
2023-09-21T13:30:24.649Z,99473.25
2023-09-21T13:35:29.462Z,99469.34
2023-09-21T13:40:32.322Z,99460.94
2023-09-21T13:45:35.915Z,99461.84
2023-09-21T13:50:40.903Z,99467.56
2023-09-21T13:55:43.795Z,99462.38
2023-09-21T14:00:50.115Z,99460.97
2023-09-21T14:05:54.739Z,99471.69
2023-09-21T14:11:00.280Z,99475.13
2023-09-21T14:16:03.824Z,99470.19
2023-09-21T14:21:08.741Z,99483.47
2023-09-21T14:26:11.685Z,99462.72
2023-09-21T14:31:14.711Z,99463.06
2023-09-21T14:36:19.106Z,99451.91
2023-09-21T14:41:41.924Z,99439.56
2023-09-21T14:46:45.413Z,99439.50
2023-09-21T14:51:49.842Z,99429.78
2023-09-21T14:56:52.718Z,99432.13
2023-09-21T15:01:56.374Z,99423.66
2023-09-21T15:07:00.623Z,99418.66
2023-09-21T15:12:04.510Z,99413.00
2023-09-21T15:17:08.406Z,99398.56
2023-09-21T15:22:13.149Z,99394.94
2023-09-21T15:27:18.508Z,99377.13
2023-09-21T15:32:21.422Z,99364.41
2023-09-21T15:37:27.893Z,99373.84
2023-09-21T15:42:31.095Z,99359.38
2023-09-21T15:47:36.252Z,99347.72
2023-09-21T15:52:40.848Z,99338.78
2023-09-21T15:57:48.905Z,99334.59
2023-09-21T16:02:51.824Z,99329.22
2023-09-21T16:07:56.169Z,99336.28
2023-09-21T16:13:00.540Z,99331.53
2023-09-21T16:18:04.295Z,99328.59
2023-09-21T16:23:08.607Z,99323.31
2023-09-21T16:28:21.992Z,99321.28
2023-09-21T16:33:28.052Z,99318.28
2023-09-21T16:38:32.877Z,99313.31
2023-09-21T16:43:35.738Z,99321.28
2023-09-21T16:48:38.790Z,99319.78
2023-09-21T16:53:43.351Z,99327.81
2023-09-21T16:58:50.940Z,99333.34
2023-09-21T17:03:53.915Z,99334.88
2023-09-21T17:09:01.337Z,99327.97
2023-09-21T17:14:04.156Z,99334.84
2023-09-21T17:19:07.887Z,99324.50
2023-09-21T17:24:12.354Z,99335.25
2023-09-21T17:29:15.772Z,99318.34
2023-09-21T17:34:19.121Z,99308.75
2023-09-21T17:39:23.589Z,99302.75
2023-09-21T17:44:26.854Z,99290.16
2023-09-21T17:49:29.853Z,99291.63
2023-09-21T17:54:34.486Z,99285.56
2023-09-21T17:59:37.781Z,99300.47
2023-09-21T18:04:43.810Z,99295.09
2023-09-21T18:09:49.016Z,99289.19
2023-09-21T18:14:51.925Z,99280.31
2023-09-21T18:19:55.865Z,99291.72
2023-09-21T18:25:07.258Z,99289.97
2023-09-21T18:30:10.773Z,99291.81
2023-09-21T18:35:15.726Z,99297.94
2023-09-21T18:40:19.940Z,99302.47
2023-09-21T18:45:22.849Z,99306.69
2023-09-21T18:50:25.835Z,99316.53
2023-09-21T18:55:30.213Z,99332.31
2023-09-21T19:00:34.370Z,99324.44
2023-09-21T19:05:37.870Z,99325.44
2023-09-21T19:10:42.345Z,99305.06
2023-09-21T19:15:46.439Z,99311.22
2023-09-21T19:20:49.381Z,99287.44
2023-09-21T19:25:53.832Z,99273.47
2023-09-21T19:30:57.329Z,99283.94
2023-09-21T19:36:01.316Z,99282.09
2023-09-21T19:41:06.808Z,99276.94
2023-09-21T19:46:09.765Z,99286.66
2023-09-21T19:51:13.265Z,99284.84
2023-09-21T19:56:17.675Z,99275.22
2023-09-21T20:01:20.623Z,99285.16
2023-09-21T20:06:23.676Z,99290.28
2023-09-21T20:11:28.203Z,99293.06
2023-09-21T20:16:31.158Z,99305.38
2023-09-21T20:21:34.138Z,99284.25
2023-09-21T20:26:38.330Z,99296.56
2023-09-21T20:31:41.522Z,99294.81
2023-09-21T20:36:44.635Z,99281.56
2023-09-21T20:41:49.051Z,99274.59
2023-09-21T20:46:52.284Z,99253.53
2023-09-21T20:51:55.224Z,99259.66
2023-09-21T20:57:00.231Z,99244.78
2023-09-21T21:02:03.652Z,99235.91
2023-09-21T21:07:06.422Z,99221.09
2023-09-21T21:12:10.612Z,99225.47
2023-09-21T21:17:13.616Z,99232.50
2023-09-21T21:22:16.433Z,99237.72
2023-09-21T21:27:21.221Z,99224.59
2023-09-21T21:32:24.390Z,99211.34
2023-09-21T21:37:27.299Z,99206.16
2023-09-21T21:42:31.526Z,99195.63
2023-09-21T21:47:34.539Z,99200.94
2023-09-21T21:52:37.378Z,99197.41
2023-09-21T21:57:41.865Z,99211.50
2023-09-21T22:02:44.792Z,99205.44
2023-09-21T22:07:47.642Z,99213.34
2023-09-21T22:12:52.128Z,99228.22
2023-09-21T22:17:54.994Z,99242.19
2023-09-21T22:22:57.774Z,99249.25
2023-09-21T22:28:02.000Z,99256.25
2023-09-21T22:33:05.446Z,99250.09
2023-09-21T22:38:14.778Z,99234.31
2023-09-21T22:43:19.653Z,99239.63
2023-09-21T22:48:22.500Z,99229.03
2023-09-21T22:53:26.587Z,99236.03
2023-09-21T22:58:31.685Z,99242.25
2023-09-21T23:03:35.093Z,99246.63
2023-09-21T23:08:38.095Z,99247.50
2023-09-21T23:13:43.848Z,99242.25
2023-09-21T23:18:46.910Z,99234.34
2023-09-21T23:23:49.812Z,99235.28
2023-09-21T23:28:53.982Z,99255.38
2023-09-21T23:33:57.007Z,99248.41
2023-09-21T23:39:00.531Z,99244.00
2023-09-21T23:44:05.352Z,99249.25
2023-09-21T23:49:08.201Z,99247.47
2023-09-21T23:54:10.989Z,99253.63
2023-09-21T23:59:15.435Z,99261.53
